Huvudsida
METAR-TAF:

METAR-TAF

Flygplatser :

Singapore, Singapore

latitud: 01-22N, longitud: 103-55E, höjd: 18 m

Aktuellt väderrapport

Denna rapport gjordes för 46 minuter sedan, klockan 08:00 UTC
Vind 5 kt från syd/sydost
Temperatur 30°C
Fuktighet 75%
Tryck 1009 hPa
Sikt 10 km eller mer
Få moln på en höjd av 1800 ft, Högtornande cumulus.
Spridda moln på en höjd av 17000 ft

METAR: WSAP 210800Z 16005KT 9999 FEW018TCU SCT170 30/25 Q1009 RETS

Tid: 16:46 (08:46 UTC)

Väderprognos

Denna rapport gjordes för 46 minuter sedan, klockan 08:00 UTC
Prognos gäller från 21 kl. 08 UTC till 22 kl. 12 UTC
Vind 8 kt från syd/sydost
Sikt 10 km eller mer
Få moln på en höjd av 1800 ft, Cumulonimbus.
Spridda moln på en höjd av 2000 ft

TAF: WSAP 210800Z 2108/2212 16008KT 9999 FEW018CB SCT020

Aktuella väderrapporter och prognoser från 4000 flygplatser (METAR- och TAF-rapporter).

De tillgängliga stationerna syns som gula och röda prickar på kartan.

För musen över prickarna för att se namnen på stationerna.

Klicka sedan för att få väderrapporter och prognoser.

För att ändra kartan: Klicka på de gröna knapparna med ett svart kors på för att zooma in; den gröna knappen med ett streck på för att zooma ut; eller på de gröna pilarna för angränsande kartor.


METAR-TAF: